Time;durP1;ratioP1;P1;durP2;ratioP2;P2;SDS_P1;SDS_P2;PMS_P1;PMS_P2;Temp;Humidity;BMP_temperature;BMP_pressure;BME280_temperature;BME280_humidity;BME280_pressure;Samples;Min_cycle;Max_cycle;Signal;HPM_P1;HPM_P2
2023/04/23 00:01:12;;;;;;;25.67;12.35;;;;;;;;;;5046572;28;20057;-73
2023/04/23 00:03:41;;;;;;;22.65;10.70;;;;;;;;;;5047083;28;20013;-73
2023/04/23 00:06:09;;;;;;;28.85;12.02;;;;;;;;;;5058980;28;20047;-73
2023/04/23 00:08:34;;;;;;;27.50;10.10;;;;;;;;;;5060691;28;20483;-73
2023/04/23 00:11:01;;;;;;;23.00;11.63;;;;;;;;;;5046553;28;20056;-74
2023/04/23 00:13:26;;;;;;;25.40;11.50;;;;;;;;;;5045116;28;20037;-73
2023/04/23 00:15:52;;;;;;;24.67;11.02;;;;;;;;;;5046315;28;20453;-73
2023/04/23 00:18:18;;;;;;;22.67;11.13;;;;;;;;;;5047191;28;20051;-73
2023/04/23 00:20:44;;;;;;;24.08;11.55;;;;;;;;;;5042817;28;20078;-73
2023/04/23 00:23:09;;;;;;;21.33;10.25;;;;;;;;;;5046124;28;20029;-73
2023/04/23 00:25:35;;;;;;;21.70;9.68;;;;;;;;;;5046291;28;20040;-72
2023/04/23 00:28:00;;;;;;;23.05;10.07;;;;;;;;;;5063290;28;20043;-73
2023/04/23 00:30:25;;;;;;;18.13;9.50;;;;;;;;;;5067181;28;20251;-72
2023/04/23 00:32:51;;;;;;;20.77;10.23;;;;;;;;;;5066708;28;20284;-74
2023/04/23 00:35:17;;;;;;;20.75;10.07;;;;;;;;;;5051206;28;20037;-74
2023/04/23 00:37:42;;;;;;;19.42;9.38;;;;;;;;;;5050431;28;20059;-74
2023/04/23 00:40:08;;;;;;;20.75;8.90;;;;;;;;;;5059965;28;20028;-73
2023/04/23 00:42:35;;;;;;;20.30;9.02;;;;;;;;;;5049221;28;20456;-73
2023/04/23 00:45:01;;;;;;;15.48;8.13;;;;;;;;;;5047136;28;20037;-73
2023/04/23 00:47:28;;;;;;;17.80;9.43;;;;;;;;;;5045916;28;20033;-73
2023/04/23 00:49:55;;;;;;;19.20;8.95;;;;;;;;;;5046117;28;20043;-73
2023/04/23 00:52:20;;;;;;;19.92;9.20;;;;;;;;;;5045606;28;20056;-73
2023/04/23 00:54:46;;;;;;;19.02;8.52;;;;;;;;;;5044322;28;20460;-73
2023/04/23 00:57:11;;;;;;;22.00;9.25;;;;;;;;;;5046413;28;20017;-73
2023/04/23 00:59:37;;;;;;;18.25;8.95;;;;;;;;;;5045267;28;20029;-73
2023/04/23 01:02:02;;;;;;;17.23;8.68;;;;;;;;;;5044758;28;20037;-74
2023/04/23 01:04:29;;;;;;;17.20;8.82;;;;;;;;;;5045515;28;20051;-73
2023/04/23 01:06:56;;;;;;;17.45;8.55;;;;;;;;;;5044446;28;20041;-73
2023/04/23 01:09:23;;;;;;;15.98;8.70;;;;;;;;;;5053893;28;20016;-73
2023/04/23 01:11:50;;;;;;;18.88;8.73;;;;;;;;;;5064440;28;20053;-73
2023/04/23 01:14:15;;;;;;;16.35;8.18;;;;;;;;;;5065536;28;20033;-73
2023/04/23 01:16:41;;;;;;;17.15;8.25;;;;;;;;;;5050775;28;20029;-73
2023/04/23 01:19:08;;;;;;;20.23;9.05;;;;;;;;;;5045115;28;20274;-73
2023/04/23 01:21:35;;;;;;;18.50;8.32;;;;;;;;;;5045377;28;20032;-73
2023/04/23 01:24:02;;;;;;;17.15;8.43;;;;;;;;;;5045974;28;20542;-73
2023/04/23 01:26:28;;;;;;;17.10;8.23;;;;;;;;;;5042717;28;20041;-73
2023/04/23 01:28:53;;;;;;;15.48;7.65;;;;;;;;;;5041644;28;20685;-73
2023/04/23 01:31:19;;;;;;;15.73;7.78;;;;;;;;;;5043966;28;20033;-73
2023/04/23 01:33:45;;;;;;;16.80;7.95;;;;;;;;;;5044935;28;20617;-73
2023/04/23 01:36:11;;;;;;;15.55;7.68;;;;;;;;;;5045671;28;20028;-73
2023/04/23 01:38:37;;;;;;;15.30;7.80;;;;;;;;;;5045388;28;20048;-73
2023/04/23 01:41:03;;;;;;;14.10;7.10;;;;;;;;;;5043730;28;20032;-73
2023/04/23 01:43:30;;;;;;;20.17;8.75;;;;;;;;;;5043972;28;20538;-73
2023/04/23 01:45:56;;;;;;;21.83;8.88;;;;;;;;;;5043804;28;20522;-73
2023/04/23 01:48:22;;;;;;;16.48;8.02;;;;;;;;;;5045593;28;20054;-73
2023/04/23 01:50:49;;;;;;;16.95;8.00;;;;;;;;;;5044900;28;20068;-73
2023/04/23 01:53:15;;;;;;;17.92;7.88;;;;;;;;;;5045196;28;20127;-73
2023/04/23 01:55:42;;;;;;;16.63;7.60;;;;;;;;;;5045475;28;20120;-73
2023/04/23 01:58:08;;;;;;;17.02;7.97;;;;;;;;;;5038209;28;20042;-73
2023/04/23 02:00:33;;;;;;;17.05;7.95;;;;;;;;;;5047437;28;20036;-73
2023/04/23 02:02:58;;;;;;;15.40;7.10;;;;;;;;;;5058052;28;20021;-73
2023/04/23 02:05:24;;;;;;;17.15;8.48;;;;;;;;;;5043069;28;20108;-73
2023/04/23 02:07:51;;;;;;;15.30;7.13;;;;;;;;;;5039912;28;20080;-73
2023/04/23 02:10:17;;;;;;;16.33;6.70;;;;;;;;;;5043468;28;20870;-73
2023/04/23 02:12:43;;;;;;;17.65;7.53;;;;;;;;;;5045079;28;20036;-73
2023/04/23 02:15:10;;;;;;;14.38;6.80;;;;;;;;;;5044900;28;20037;-73
2023/04/23 02:17:36;;;;;;;14.98;7.15;;;;;;;;;;5044442;28;20045;-73
2023/04/23 02:20:02;;;;;;;18.85;7.70;;;;;;;;;;5044557;28;20143;-73
2023/04/23 02:22:27;;;;;;;13.48;7.07;;;;;;;;;;5043226;28;20044;-73
2023/04/23 02:24:54;;;;;;;13.50;7.40;;;;;;;;;;5043406;28;20029;-73
2023/04/23 02:27:20;;;;;;;16.05;7.45;;;;;;;;;;5042663;28;20548;-73
2023/04/23 02:29:46;;;;;;;14.98;7.35;;;;;;;;;;5044220;28;20075;-74
2023/04/23 02:32:12;;;;;;;12.90;7.10;;;;;;;;;;5040727;28;20604;-73
2023/04/23 02:34:37;;;;;;;14.00;6.93;;;;;;;;;;5028310;28;20045;-73
2023/04/23 02:37:06;;;;;;;15.82;7.93;;;;;;;;;;5028778;28;20391;-73
2023/04/23 02:39:32;;;;;;;14.20;7.18;;;;;;;;;;5030338;28;20063;-73
2023/04/23 02:41:58;;;;;;;13.30;7.10;;;;;;;;;;5046547;28;20021;-73
2023/04/23 02:44:24;;;;;;;15.98;6.95;;;;;;;;;;5043878;28;20075;-73
2023/04/23 02:46:50;;;;;;;15.57;6.50;;;;;;;;;;5046784;28;20108;-73
2023/04/23 02:49:16;;;;;;;22.02;7.38;;;;;;;;;;5045529;28;20025;-73
2023/04/23 02:51:41;;;;;;;18.52;7.47;;;;;;;;;;5036726;28;20037;-73
2023/04/23 02:54:07;;;;;;;13.13;6.50;;;;;;;;;;5027278;28;20032;-74
2023/04/23 02:56:32;;;;;;;15.75;7.45;;;;;;;;;;5028279;28;20026;-73
2023/04/23 02:58:58;;;;;;;15.68;7.57;;;;;;;;;;5038334;28;20999;-73
2023/04/23 03:01:23;;;;;;;14.18;7.15;;;;;;;;;;5045516;28;20035;-73
2023/04/23 03:03:49;;;;;;;13.25;6.50;;;;;;;;;;5048022;28;20117;-73
2023/04/23 03:06:14;;;;;;;13.90;7.68;;;;;;;;;;5047435;28;20071;-74
2023/04/23 03:08:40;;;;;;;14.85;6.97;;;;;;;;;;5048096;28;20035;-73
2023/04/23 03:11:05;;;;;;;15.27;7.65;;;;;;;;;;5045945;28;20124;-73
2023/04/23 03:13:30;;;;;;;16.63;8.20;;;;;;;;;;5043165;28;20041;-73
2023/04/23 03:15:56;;;;;;;16.40;8.40;;;;;;;;;;5048095;28;20037;-73
2023/04/23 03:18:21;;;;;;;14.77;7.03;;;;;;;;;;5048622;28;20529;-73
2023/04/23 03:20:47;;;;;;;16.67;7.60;;;;;;;;;;5049209;28;20104;-73
2023/04/23 03:23:12;;;;;;;17.10;8.10;;;;;;;;;;5053059;28;20033;-74
2023/04/23 03:25:38;;;;;;;17.13;7.97;;;;;;;;;;5060540;28;20036;-73
2023/04/23 03:28:03;;;;;;;15.85;8.13;;;;;;;;;;5050863;28;20119;-73
2023/04/23 03:30:29;;;;;;;13.85;7.75;;;;;;;;;;5042882;28;20091;-72
2023/04/23 03:32:56;;;;;;;15.55;7.53;;;;;;;;;;5080750;28;20021;-73
2023/04/23 03:35:22;;;;;;;17.45;7.65;;;;;;;;;;5047462;28;20076;-73
2023/04/23 03:37:47;;;;;;;16.17;7.57;;;;;;;;;;5079245;28;20033;-73
2023/04/23 03:40:13;;;;;;;16.35;7.63;;;;;;;;;;5078763;28;20685;-73
2023/04/23 03:42:38;;;;;;;15.73;7.40;;;;;;;;;;5037155;28;20056;-73
2023/04/23 03:45:05;;;;;;;16.30;7.50;;;;;;;;;;5042783;28;20025;-73
2023/04/23 03:47:30;;;;;;;15.55;8.02;;;;;;;;;;5046186;28;20037;-73
2023/04/23 03:49:56;;;;;;;13.98;6.88;;;;;;;;;;5045102;28;20138;-73
2023/04/23 03:52:21;;;;;;;17.77;7.75;;;;;;;;;;5040276;28;20786;-73
2023/04/23 03:54:46;;;;;;;19.05;7.15;;;;;;;;;;5044909;28;20059;-73
2023/04/23 03:57:12;;;;;;;14.98;6.93;;;;;;;;;;5045842;28;20107;-73
2023/04/23 03:59:37;;;;;;;14.23;7.00;;;;;;;;;;5043276;28;20049;-73
2023/04/23 04:02:03;;;;;;;15.95;7.18;;;;;;;;;;5043743;28;20571;-73
2023/04/23 04:04:29;;;;;;;12.00;6.20;;;;;;;;;;5045118;28;20095;-73
2023/04/23 04:06:55;;;;;;;13.48;6.95;;;;;;;;;;5046220;28;20650;-73
2023/04/23 04:09:21;;;;;;;14.90;6.35;;;;;;;;;;5046738;28;20387;-74
2023/04/23 04:11:46;;;;;;;12.15;5.63;;;;;;;;;;5046367;28;20063;-73
2023/04/23 04:14:12;;;;;;;12.20;6.05;;;;;;;;;;5046093;28;20033;-72
2023/04/23 04:16:37;;;;;;;15.18;6.55;;;;;;;;;;5044715;28;20052;-73
2023/04/23 04:19:03;;;;;;;11.73;6.20;;;;;;;;;;5044811;28;20048;-72
2023/04/23 04:21:28;;;;;;;10.48;5.25;;;;;;;;;;5039839;28;20289;-73
2023/04/23 04:23:55;;;;;;;10.00;5.10;;;;;;;;;;5046547;28;20227;-73
2023/04/23 04:26:20;;;;;;;14.13;5.53;;;;;;;;;;5046939;28;20134;-73
2023/04/23 04:28:45;;;;;;;11.68;5.45;;;;;;;;;;5045920;28;20139;-73
2023/04/23 04:31:14;;;;;;;14.98;5.38;;;;;;;;;;5046512;28;20079;-73
2023/04/23 04:33:40;;;;;;;11.88;5.75;;;;;;;;;;5061491;28;20021;-73
2023/04/23 04:36:08;;;;;;;9.43;4.57;;;;;;;;;;5061640;28;20033;-73
2023/04/23 04:38:36;;;;;;;10.27;5.43;;;;;;;;;;5046722;28;20809;-73
2023/04/23 04:41:02;;;;;;;12.05;5.35;;;;;;;;;;5043893;28;20079;-72
2023/04/23 04:43:27;;;;;;;11.93;5.10;;;;;;;;;;5042419;28;20543;-73
2023/04/23 04:45:53;;;;;;;12.07;5.30;;;;;;;;;;5047819;28;20044;-73
2023/04/23 04:48:19;;;;;;;12.80;4.93;;;;;;;;;;5089523;28;20039;-73
2023/04/23 04:50:45;;;;;;;9.48;4.65;;;;;;;;;;5049223;28;20037;-73
2023/04/23 04:53:11;;;;;;;10.27;4.57;;;;;;;;;;5078234;28;20040;-73
2023/04/23 04:55:36;;;;;;;12.75;5.40;;;;;;;;;;5066259;28;20041;-73
2023/04/23 04:58:02;;;;;;;10.52;4.25;;;;;;;;;;5044654;28;20609;-73
2023/04/23 05:00:28;;;;;;;8.75;4.60;;;;;;;;;;5056529;28;20028;-72
2023/04/23 05:02:55;;;;;;;11.15;5.22;;;;;;;;;;5063592;28;20024;-73
2023/04/23 05:05:22;;;;;;;10.50;4.63;;;;;;;;;;5064666;28;20050;-73
2023/04/23 05:07:48;;;;;;;13.38;5.30;;;;;;;;;;5046101;28;20068;-72
2023/04/23 05:10:14;;;;;;;13.25;4.57;;;;;;;;;;5071821;28;20111;-72
2023/04/23 05:12:43;;;;;;;13.00;5.20;;;;;;;;;;5074524;28;20027;-72
2023/04/23 05:15:12;;;;;;;11.43;4.82;;;;;;;;;;5045494;28;20521;-73
2023/04/23 05:17:40;;;;;;;12.90;5.10;;;;;;;;;;5045349;28;20623;-72
2023/04/23 05:20:09;;;;;;;8.45;3.95;;;;;;;;;;5042257;28;20041;-73
2023/04/23 05:22:40;;;;;;;11.50;4.65;;;;;;;;;;5035616;28;20116;-73
2023/04/23 05:25:06;;;;;;;11.63;4.80;;;;;;;;;;5025361;28;20127;-73
2023/04/23 05:27:32;;;;;;;12.10;4.82;;;;;;;;;;5025462;28;20044;-73
2023/04/23 05:29:58;;;;;;;9.55;4.55;;;;;;;;;;5026058;28;20021;-73
2023/04/23 05:32:24;;;;;;;9.82;5.07;;;;;;;;;;5023657;28;20041;-73
2023/04/23 05:34:49;;;;;;;11.75;4.95;;;;;;;;;;5024816;28;20121;-73
2023/04/23 05:37:15;;;;;;;11.32;5.00;;;;;;;;;;5024618;28;20844;-73
2023/04/23 05:39:40;;;;;;;10.02;5.22;;;;;;;;;;5024513;28;20079;-73
2023/04/23 05:42:05;;;;;;;11.82;5.80;;;;;;;;;;5025752;28;20029;-73
2023/04/23 05:44:31;;;;;;;11.05;4.68;;;;;;;;;;5024669;28;20041;-74
2023/04/23 05:46:56;;;;;;;11.55;5.03;;;;;;;;;;5025499;28;20061;-73
2023/04/23 05:49:21;;;;;;;13.07;4.32;;;;;;;;;;5025223;28;20049;-73
2023/04/23 05:51:47;;;;;;;8.45;4.38;;;;;;;;;;5025376;28;20029;-73
2023/04/23 05:54:12;;;;;;;11.65;4.90;;;;;;;;;;5025698;28;20032;-73
2023/04/23 05:56:37;;;;;;;11.27;4.60;;;;;;;;;;5024117;28;20041;-73
2023/04/23 05:59:03;;;;;;;10.38;4.68;;;;;;;;;;5028209;28;20055;-73
2023/04/23 06:01:28;;;;;;;12.25;4.82;;;;;;;;;;5044045;28;20064;-73
2023/04/23 06:03:54;;;;;;;14.95;5.38;;;;;;;;;;5046419;28;20033;-73
2023/04/23 06:06:19;;;;;;;8.40;4.38;;;;;;;;;;5052094;28;20052;-74
2023/04/23 06:08:44;;;;;;;14.40;5.57;;;;;;;;;;5055572;28;20083;-73
2023/04/23 06:11:10;;;;;;;10.80;4.32;;;;;;;;;;5059356;28;20104;-73
2023/04/23 06:13:39;;;;;;;8.88;4.82;;;;;;;;;;5052086;28;20052;-73
2023/04/23 06:16:07;;;;;;;8.50;4.47;;;;;;;;;;5040011;28;20094;-73
2023/04/23 06:18:33;;;;;;;9.40;4.38;;;;;;;;;;5050151;28;20056;-73
2023/04/23 06:21:03;;;;;;;10.27;4.15;;;;;;;;;;5048941;28;20056;-73
2023/04/23 06:23:29;;;;;;;7.20;4.15;;;;;;;;;;5045306;28;20041;-73
2023/04/23 06:25:54;;;;;;;6.63;3.40;;;;;;;;;;5027697;28;20037;-73
2023/04/23 06:28:20;;;;;;;7.90;4.10;;;;;;;;;;5028962;28;20033;-74
2023/04/23 06:30:45;;;;;;;6.55;3.75;;;;;;;;;;5034129;28;20040;-73
2023/04/23 06:33:11;;;;;;;9.05;3.70;;;;;;;;;;5048300;28;20139;-73
2023/04/23 06:35:36;;;;;;;8.18;4.18;;;;;;;;;;5047946;28;20044;-73
2023/04/23 06:38:02;;;;;;;8.50;3.17;;;;;;;;;;5048156;28;20155;-73
2023/04/23 06:40:27;;;;;;;8.10;3.13;;;;;;;;;;5046350;28;20521;-73
2023/04/23 06:42:53;;;;;;;11.98;3.38;;;;;;;;;;5048345;28;20284;-73
2023/04/23 06:45:19;;;;;;;9.27;3.72;;;;;;;;;;5036631;28;20040;-72
2023/04/23 06:47:44;;;;;;;9.60;3.90;;;;;;;;;;5027133;28;20041;-73
2023/04/23 06:50:10;;;;;;;8.98;3.83;;;;;;;;;;5027140;28;20421;-72
2023/04/23 06:52:35;;;;;;;7.63;3.25;;;;;;;;;;5030948;28;20045;-72
2023/04/23 06:55:00;;;;;;;7.65;3.72;;;;;;;;;;5041675;28;20098;-72
2023/04/23 06:57:27;;;;;;;6.53;3.05;;;;;;;;;;5030668;28;20017;-73
2023/04/23 06:59:52;;;;;;;11.65;3.13;;;;;;;;;;5041712;28;20088;-73
2023/04/23 07:02:18;;;;;;;8.80;3.47;;;;;;;;;;5039979;28;20045;-71
2023/04/23 07:04:43;;;;;;;4.30;2.80;;;;;;;;;;5029833;28;20040;-73
2023/04/23 07:07:09;;;;;;;6.85;2.55;;;;;;;;;;5040189;28;20605;-72
2023/04/23 07:09:34;;;;;;;6.43;3.55;;;;;;;;;;5043344;28;20033;-73
2023/04/23 07:12:01;;;;;;;6.95;3.22;;;;;;;;;;5046523;28;20032;-73
2023/04/23 07:14:26;;;;;;;10.38;2.63;;;;;;;;;;5046522;28;20741;-72
2023/04/23 07:16:53;;;;;;;7.10;2.72;;;;;;;;;;5038876;28;20061;-73
2023/04/23 07:19:19;;;;;;;8.40;3.03;;;;;;;;;;5025868;28;20076;-73
2023/04/23 07:21:44;;;;;;;7.78;3.05;;;;;;;;;;5026965;28;20037;-72
2023/04/23 07:24:10;;;;;;;7.70;2.35;;;;;;;;;;5027831;28;20100;-73
2023/04/23 07:26:35;;;;;;;11.45;2.80;;;;;;;;;;5027475;28;20120;-73
2023/04/23 07:29:02;;;;;;;5.75;2.47;;;;;;;;;;5027909;28;20060;-73
2023/04/23 07:31:28;;;;;;;11.13;3.75;;;;;;;;;;5032035;28;20033;-73
2023/04/23 07:33:55;;;;;;;7.55;3.33;;;;;;;;;;5037461;28;20036;-73
2023/04/23 07:36:20;;;;;;;8.57;3.30;;;;;;;;;;5059080;28;20060;-73
2023/04/23 07:38:46;;;;;;;4.50;2.28;;;;;;;;;;5040865;28;20068;-72
2023/04/23 07:41:11;;;;;;;6.28;2.22;;;;;;;;;;5024289;28;20072;-73
2023/04/23 07:43:37;;;;;;;4.47;2.00;;;;;;;;;;5040657;28;20040;-73
2023/04/23 07:46:03;;;;;;;5.20;2.60;;;;;;;;;;5046614;28;20401;-72
2023/04/23 07:48:29;;;;;;;7.13;2.58;;;;;;;;;;5042777;28;20082;-72
2023/04/23 07:50:55;;;;;;;9.27;2.55;;;;;;;;;;5046781;28;20013;-73
2023/04/23 07:53:21;;;;;;;11.73;3.30;;;;;;;;;;5043271;28;20458;-73
2023/04/23 07:55:47;;;;;;;8.60;3.13;;;;;;;;;;5044843;28;20044;-73
2023/04/23 07:58:12;;;;;;;8.05;1.98;;;;;;;;;;5047176;28;20060;-73
2023/04/23 08:00:38;;;;;;;10.88;2.55;;;;;;;;;;5043441;28;20033;-73
2023/04/23 08:03:03;;;;;;;3.72;1.70;;;;;;;;;;5046043;28;20028;-74
2023/04/23 08:05:28;;;;;;;6.35;2.33;;;;;;;;;;5038335;28;20038;-73
2023/04/23 08:07:54;;;;;;;7.22;2.22;;;;;;;;;;5045088;28;20472;-73
2023/04/23 08:10:19;;;;;;;5.72;2.40;;;;;;;;;;5039517;28;20029;-73
2023/04/23 08:12:45;;;;;;;9.32;3.00;;;;;;;;;;5038876;28;20501;-73
2023/04/23 08:15:11;;;;;;;6.45;2.38;;;;;;;;;;5038365;28;20047;-73
2023/04/23 08:17:36;;;;;;;5.70;2.15;;;;;;;;;;5041464;28;20041;-74
2023/04/23 08:20:03;;;;;;;8.00;2.50;;;;;;;;;;5027944;28;20042;-73
2023/04/23 08:22:28;;;;;;;7.00;2.53;;;;;;;;;;5044166;28;20045;-73
2023/04/23 08:24:53;;;;;;;6.82;2.53;;;;;;;;;;5045585;28;20029;-73
2023/04/23 08:27:19;;;;;;;8.88;2.60;;;;;;;;;;5043712;28;20024;-73
2023/04/23 08:29:44;;;;;;;9.02;2.30;;;;;;;;;;5045785;28;20060;-73
2023/04/23 08:32:09;;;;;;;4.03;1.88;;;;;;;;;;5043500;28;20630;-73
2023/04/23 08:34:35;;;;;;;8.40;2.38;;;;;;;;;;5044541;28;20091;-73
2023/04/23 08:37:00;;;;;;;6.55;2.08;;;;;;;;;;5045409;28;20035;-74
2023/04/23 08:39:26;;;;;;;4.25;2.22;;;;;;;;;;5053251;28;20072;-73
2023/04/23 08:41:55;;;;;;;6.35;1.88;;;;;;;;;;5044811;28;20025;-73
2023/04/23 08:44:23;;;;;;;3.78;1.77;;;;;;;;;;5060642;28;20121;-73
2023/04/23 08:46:51;;;;;;;7.53;1.95;;;;;;;;;;5058390;28;20111;-73
2023/04/23 08:49:17;;;;;;;5.70;1.90;;;;;;;;;;5059172;28;20029;-73
2023/04/23 08:51:47;;;;;;;5.95;1.75;;;;;;;;;;5066825;28;20064;-73
2023/04/23 08:54:18;;;;;;;5.95;2.20;;;;;;;;;;5071810;28;20021;-73
2023/04/23 08:56:44;;;;;;;5.45;1.95;;;;;;;;;;5064730;28;20038;-73
2023/04/23 08:59:10;;;;;;;5.15;1.90;;;;;;;;;;5037203;28;20112;-73
2023/04/23 09:01:36;;;;;;;3.22;1.77;;;;;;;;;;5035522;28;20136;-74
2023/04/23 09:04:01;;;;;;;9.02;2.38;;;;;;;;;;5035525;28;20037;-73
2023/04/23 09:06:30;;;;;;;3.75;1.60;;;;;;;;;;5045082;28;20044;-73
2023/04/23 09:08:57;;;;;;;6.50;1.75;;;;;;;;;;5046068;28;20636;-73
2023/04/23 09:11:26;;;;;;;5.07;1.83;;;;;;;;;;5042611;28;20029;-73
2023/04/23 09:13:52;;;;;;;8.55;2.13;;;;;;;;;;5044456;28;20048;-73
2023/04/23 09:16:17;;;;;;;4.85;1.85;;;;;;;;;;5043934;28;20045;-73
2023/04/23 09:18:43;;;;;;;7.32;2.30;;;;;;;;;;5045262;28;20139;-73
2023/04/23 09:21:09;;;;;;;2.13;1.50;;;;;;;;;;5044720;28;20029;-73
2023/04/23 09:23:37;;;;;;;4.95;1.70;;;;;;;;;;5037132;28;20044;-73
2023/04/23 09:26:05;;;;;;;8.60;1.70;;;;;;;;;;5022937;28;20029;-74
2023/04/23 09:28:37;;;;;;;3.28;1.80;;;;;;;;;;5024067;28;20128;-74
2023/04/23 09:31:06;;;;;;;5.50;1.73;;;;;;;;;;5024600;28;20032;-74
2023/04/23 09:33:34;;;;;;;4.00;1.95;;;;;;;;;;5024775;28;20030;-74
2023/04/23 09:36:09;;;;;;;5.75;1.85;;;;;;;;;;5024628;28;20112;-74
2023/04/23 09:38:34;;;;;;;5.57;1.63;;;;;;;;;;5024618;28;20033;-74
2023/04/23 09:41:20;;;;;;;7.43;1.63;;;;;;;;;;5024392;28;20048;-73
2023/04/23 09:43:47;;;;;;;7.00;2.42;;;;;;;;;;5024882;28;20030;-74
2023/04/23 09:46:12;;;;;;;3.10;1.23;;;;;;;;;;5024609;28;20048;-74
2023/04/23 09:48:41;;;;;;;2.58;1.17;;;;;;;;;;5028398;28;20037;-74
2023/04/23 09:51:07;;;;;;;4.88;1.13;;;;;;;;;;5061728;28;20088;-75
2023/04/23 09:53:42;;;;;;;5.72;1.20;;;;;;;;;;5062946;28;20068;-75
2023/04/23 09:56:07;;;;;;;4.85;1.33;;;;;;;;;;5065146;28;20032;-77
2023/04/23 09:58:33;;;;;;;4.00;1.20;;;;;;;;;;5064487;28;20089;-76
2023/04/23 10:01:08;;;;;;;7.18;1.42;;;;;;;;;;5063929;28;20398;-77
2023/04/23 10:03:34;;;;;;;3.15;1.58;;;;;;;;;;5056624;28;20458;-76
2023/04/23 10:06:00;;;;;;;4.97;1.50;;;;;;;;;;5077735;28;20537;-74
2023/04/23 10:08:26;;;;;;;3.45;1.23;;;;;;;;;;5051093;28;20505;-74
2023/04/23 10:10:52;;;;;;;6.50;1.70;;;;;;;;;;5051911;28;20026;-73
2023/04/23 10:13:17;;;;;;;4.65;1.52;;;;;;;;;;5044528;28;20096;-74
2023/04/23 10:15:45;;;;;;;3.72;1.10;;;;;;;;;;5050112;28;20942;-73
2023/04/23 10:18:13;;;;;;;6.03;1.58;;;;;;;;;;5055130;28;20027;-74
2023/04/23 10:20:41;;;;;;;5.03;1.23;;;;;;;;;;5041561;28;20047;-74
2023/04/23 10:23:08;;;;;;;4.63;1.13;;;;;;;;;;5042749;28;20518;-74
2023/04/23 10:25:36;;;;;;;4.15;0.95;;;;;;;;;;5042506;28;20573;-74
2023/04/23 10:28:03;;;;;;;3.83;1.30;;;;;;;;;;5042807;28;20029;-73
2023/04/23 10:30:29;;;;;;;3.95;1.33;;;;;;;;;;5043554;28;20025;-73
2023/04/23 10:32:56;;;;;;;4.95;1.52;;;;;;;;;;5044290;28;20021;-73
2023/04/23 10:35:21;;;;;;;5.70;1.55;;;;;;;;;;5042044;28;20041;-73
2023/04/23 10:37:48;;;;;;;3.60;1.33;;;;;;;;;;5041951;28;20040;-73
2023/04/23 10:40:17;;;;;;;7.00;1.60;;;;;;;;;;5041960;28;20409;-73
2023/04/23 10:42:43;;;;;;;7.22;1.60;;;;;;;;;;5033325;28;20027;-73
2023/04/23 10:45:16;;;;;;;3.00;1.30;;;;;;;;;;5045901;28;20033;-73
2023/04/23 10:47:45;;;;;;;4.20;1.38;;;;;;;;;;5042515;28;20048;-73
2023/04/23 10:50:26;;;;;;;7.22;1.40;;;;;;;;;;5044618;28;20112;-74
2023/04/23 10:52:53;;;;;;;3.72;1.10;;;;;;;;;;5024459;28;20863;-73
2023/04/23 10:55:24;;;;;;;3.10;1.20;;;;;;;;;;5040351;28;20048;-73
2023/04/23 10:58:00;;;;;;;2.88;1.10;;;;;;;;;;5040395;28;20024;-73
2023/04/23 11:00:27;;;;;;;1.70;1.20;;;;;;;;;;5047842;28;20035;-73
2023/04/23 11:02:53;;;;;;;5.85;1.40;;;;;;;;;;5047981;28;20124;-74
2023/04/23 11:05:21;;;;;;;3.50;1.25;;;;;;;;;;5045280;28;20414;-73
2023/04/23 11:08:07;;;;;;;5.75;1.60;;;;;;;;;;5047365;28;20033;-73
2023/04/23 11:10:33;;;;;;;4.90;1.50;;;;;;;;;;5046937;28;20110;-73
2023/04/23 11:13:22;;;;;;;3.38;1.20;;;;;;;;;;5050655;28;20439;-73
2023/04/23 11:15:47;;;;;;;3.65;1.23;;;;;;;;;;5046297;28;20530;-73
2023/04/23 11:18:13;;;;;;;1.10;0.70;;;;;;;;;;5045226;28;20046;-73
2023/04/23 11:20:39;;;;;;;2.58;1.17;;;;;;;;;;5045526;28;20147;-73
2023/04/23 11:23:05;;;;;;;1.65;1.00;;;;;;;;;;5051306;28;20074;-73
2023/04/23 11:25:31;;;;;;;3.95;1.20;;;;;;;;;;5063154;28;20408;-72
2023/04/23 11:28:00;;;;;;;4.68;1.38;;;;;;;;;;5030336;28;20036;-73
2023/04/23 11:30:27;;;;;;;2.03;1.05;;;;;;;;;;5035186;28;20052;-73
2023/04/23 11:32:55;;;;;;;3.80;0.90;;;;;;;;;;5043398;28;20765;-74
2023/04/23 11:35:23;;;;;;;4.75;1.45;;;;;;;;;;5067711;28;20049;-73
2023/04/23 11:37:49;;;;;;;3.65;1.38;;;;;;;;;;5054015;28;20083;-73
2023/04/23 11:40:18;;;;;;;2.25;1.20;;;;;;;;;;5059325;28;20197;-74
2023/04/23 11:42:48;;;;;;;2.83;1.13;;;;;;;;;;5039376;28;20727;-72
2023/04/23 11:45:34;;;;;;;2.40;1.00;;;;;;;;;;5043653;28;20067;-73
2023/04/23 11:48:00;;;;;;;4.45;1.40;;;;;;;;;;5047329;28;20628;-73
2023/04/23 11:50:31;;;;;;;3.05;1.25;;;;;;;;;;5046963;28;20033;-73
2023/04/23 11:53:03;;;;;;;1.67;1.02;;;;;;;;;;5035204;28;20034;-73
2023/04/23 11:55:28;;;;;;;2.70;1.35;;;;;;;;;;5027791;28;20549;-74
2023/04/23 11:57:53;;;;;;;2.97;1.38;;;;;;;;;;5028042;28;20029;-73
2023/04/23 12:00:22;;;;;;;4.68;1.42;;;;;;;;;;5026797;28;20041;-73
2023/04/23 12:03:00;;;;;;;4.18;1.45;;;;;;;;;;5026861;28;20083;-75
2023/04/23 12:05:35;;;;;;;2.58;1.30;;;;;;;;;;5026258;28;20069;-74
2023/04/23 12:08:08;;;;;;;2.50;1.70;;;;;;;;;;5035929;28;20033;-74
2023/04/23 12:10:42;;;;;;;3.95;1.60;;;;;;;;;;5043786;28;20072;-73
2023/04/23 12:13:13;;;;;;;3.35;1.48;;;;;;;;;;5046200;28;20406;-75
2023/04/23 12:15:51;;;;;;;6.05;2.35;;;;;;;;;;5046654;28;20502;-73
2023/04/23 12:18:18;;;;;;;4.35;2.38;;;;;;;;;;5046832;28;20053;-74
2023/04/23 12:20:45;;;;;;;6.13;2.97;;;;;;;;;;5046008;28;20037;-74
2023/04/23 12:23:10;;;;;;;5.55;3.50;;;;;;;;;;5046657;28;20029;-74
2023/04/23 12:25:36;;;;;;;5.38;3.42;;;;;;;;;;5046130;28;20033;-74
2023/04/23 12:28:03;;;;;;;5.63;2.92;;;;;;;;;;5046917;28;20112;-73
2023/04/23 12:30:34;;;;;;;6.25;3.78;;;;;;;;;;5045000;28;20036;-74
2023/04/23 12:33:00;;;;;;;7.53;3.45;;;;;;;;;;5046929;28;20361;-73
2023/04/23 12:35:40;;;;;;;9.57;4.07;;;;;;;;;;5045106;28;20044;-74
2023/04/23 12:38:05;;;;;;;5.78;2.85;;;;;;;;;;5045680;28;20029;-74
2023/04/23 12:40:31;;;;;;;7.57;2.83;;;;;;;;;;5045248;28;20554;-74
2023/04/23 12:42:57;;;;;;;4.25;2.20;;;;;;;;;;5046690;28;20033;-75
2023/04/23 12:45:22;;;;;;;6.18;3.92;;;;;;;;;;5044585;28;20082;-74
2023/04/23 12:47:47;;;;;;;4.60;2.58;;;;;;;;;;5040739;28;20593;-74
2023/04/23 12:50:13;;;;;;;6.53;2.83;;;;;;;;;;5042374;28;20107;-74
2023/04/23 12:52:38;;;;;;;6.50;3.30;;;;;;;;;;5041667;28;20120;-74
2023/04/23 12:55:05;;;;;;;7.35;3.17;;;;;;;;;;5043141;28;20037;-74
2023/04/23 12:57:30;;;;;;;4.90;2.42;;;;;;;;;;5046567;28;20025;-74
2023/04/23 12:59:55;;;;;;;5.57;2.83;;;;;;;;;;5052219;28;20043;-74
2023/04/23 13:02:22;;;;;;;8.43;3.67;;;;;;;;;;5052555;28;20536;-73
2023/04/23 13:04:47;;;;;;;5.60;2.92;;;;;;;;;;5044346;28;20065;-74
2023/04/23 13:07:13;;;;;;;5.60;2.95;;;;;;;;;;5044520;28;20025;-74
2023/04/23 13:09:38;;;;;;;6.07;2.95;;;;;;;;;;5044783;28;20119;-73
2023/04/23 13:12:04;;;;;;;4.10;2.42;;;;;;;;;;5045746;28;20009;-74
2023/04/23 13:14:30;;;;;;;6.88;2.60;;;;;;;;;;5037849;28;20724;-74
2023/04/23 13:16:56;;;;;;;4.13;2.20;;;;;;;;;;5039828;28;20064;-75
2023/04/23 13:19:22;;;;;;;4.82;2.53;;;;;;;;;;5040045;28;20114;-74
2023/04/23 13:21:47;;;;;;;4.80;2.58;;;;;;;;;;5041642;28;20025;-73
2023/04/23 13:24:13;;;;;;;4.85;2.53;;;;;;;;;;5041438;28;20028;-74
2023/04/23 13:26:38;;;;;;;3.30;2.08;;;;;;;;;;5040806;28;20556;-74
2023/04/23 13:29:04;;;;;;;3.90;2.10;;;;;;;;;;5045221;28;20037;-74
2023/04/23 13:31:30;;;;;;;4.60;1.90;;;;;;;;;;5044190;28;20037;-74
2023/04/23 13:33:56;;;;;;;4.63;2.38;;;;;;;;;;5042517;28;20051;-74
2023/04/23 13:36:22;;;;;;;5.30;2.78;;;;;;;;;;5046225;28;20036;-77
2023/04/23 13:38:48;;;;;;;6.30;2.80;;;;;;;;;;5044464;28;20043;-74
2023/04/23 13:41:13;;;;;;;6.30;3.08;;;;;;;;;;5041553;28;20033;-74
2023/04/23 13:43:38;;;;;;;5.50;3.17;;;;;;;;;;5041909;28;20037;-74
2023/04/23 13:46:04;;;;;;;4.97;2.50;;;;;;;;;;5041918;28;20039;-75
2023/04/23 13:48:30;;;;;;;4.60;2.58;;;;;;;;;;5046077;28;20035;-75
2023/04/23 13:51:00;;;;;;;3.80;2.28;;;;;;;;;;5043136;28;20033;-75
2023/04/23 13:53:26;;;;;;;4.38;2.25;;;;;;;;;;5041253;28;20048;-73
2023/04/23 13:55:53;;;;;;;4.72;2.05;;;;;;;;;;5043064;28;20061;-73
2023/04/23 13:58:19;;;;;;;3.30;2.20;;;;;;;;;;5044329;28;20047;-73
2023/04/23 14:00:45;;;;;;;4.75;2.30;;;;;;;;;;5041742;28;20061;-73
2023/04/23 14:03:10;;;;;;;3.50;2.22;;;;;;;;;;5036632;28;20110;-73
2023/04/23 14:05:37;;;;;;;2.95;2.17;;;;;;;;;;5048721;28;20033;-73
2023/04/23 14:08:02;;;;;;;5.47;2.47;;;;;;;;;;5043801;28;20298;-73
2023/04/23 14:10:27;;;;;;;6.97;2.60;;;;;;;;;;5040911;28;20510;-73
2023/04/23 14:12:54;;;;;;;4.45;2.33;;;;;;;;;;5040454;28;20044;-73
2023/04/23 14:15:20;;;;;;;7.10;5.85;;;;;;;;;;5044544;28;20052;-73
2023/04/23 14:17:46;;;;;;;3.03;2.00;;;;;;;;;;5044466;28;20063;-73
2023/04/23 14:20:18;;;;;;;3.28;2.42;;;;;;;;;;5048769;28;20045;-74
2023/04/23 14:22:48;;;;;;;3.10;1.85;;;;;;;;;;5056978;28;20048;-73
2023/04/23 14:25:22;;;;;;;4.55;2.00;;;;;;;;;;5049226;28;20064;-73
2023/04/23 14:27:50;;;;;;;4.47;2.35;;;;;;;;;;5048648;28;20060;-73
2023/04/23 14:30:19;;;;;;;4.25;2.08;;;;;;;;;;5048460;28;20423;-73
2023/04/23 14:32:45;;;;;;;4.03;2.15;;;;;;;;;;5046877;28;20068;-74